CYQV

Yorkton Municipal Airport

Yorkton, Saskatchewan, Canada
METAR CYQV 190300Z AUTO 22011G18KT 9SM CLR 02/M01 A2932 RMK SLP957
Observed Flight Rules
Jan-19 @ 03:00 UTC (35 minutes ago) Visual Flight Rules
Wind Visibility Clouds
220° at 11 knots
 Gusting to 18 knots
9 miles
  • Clear skies
Temperatures Readings
Current 2°C / 36°F
Dewpoint -1°C / 30°F
Humidity 81%
Altimeter 29.32" Hg
Pressure 995.7 hPa
Elevation 498
METAR CYQV 190300Z AUTO 22011G18KT 9SM CLR 02/M01 A2932 RMK SLP957
Observed Flight Rules
Jan-19 @ 03:00 UTC
(35 minutes ago)
VFR
Wind Visibility
220° at 11 knots
 Gusting to 18 knots
9 miles
Clouds
  • Clear skies
Temperature Dewpoint
2°C / 36°F -1°C / 30°F
Humidity Altimeter Pressure
81% 29.32" Hg 995.7 hPa